.
WxDataArchive / Data Records for 2005-12-12
2005-12-11 December 2005 2005-12-13

Data Records for Monday, 12 December 2005

Time	Temp	Chill	HIndex	Humid	Dewpt	 Wind 	HiWind	WindDir	Rain 	Barom 
-----	----	-----	------	-----	-----	------	------	-------	-----	----- 
00:00	24.1	24.1	24.1	80	18.8	1	2	248	0.00	29.798 
00:05	24.1	24.1	24.1	80	18.8	0	1	248	0.00	29.798 
00:10	24.1	24.1	24.1	80	18.8	0	2	248	0.00	29.798 
00:15	24.1	24.1	24.1	80	18.8	0	1	248	0.00	29.795 
00:20	24.2	24.2	24.2	80	18.9	0	1	248	0.00	29.795 
00:25	24.1	24.1	24.1	80	18.8	0	2	248	0.00	29.795 
00:30	24.1	24.1	24.1	80	18.8	0	3	248	0.00	29.793 
00:35	24.1	24.1	24.1	79	18.5	1	2	248	0.00	29.793 
00:40	24.1	24.1	24.1	80	18.8	0	2	248	0.00	29.793 
00:45	24.1	24.1	24.1	79	18.5	0	2	248	0.00	29.792 
00:50	24.1	24.1	24.1	79	18.5	0	1	225	0.00	29.792 
00:55	23.9	23.9	23.9	79	18.4	0	1	225	0.00	29.792 
01:00	23.9	23.9	23.9	79	18.4	0	1	225	0.00	29.788 
01:05	23.9	23.9	23.9	79	18.4	0	1	225	0.00	29.788 
01:10	23.8	23.8	23.8	79	18.3	0	1	225	0.00	29.788 
01:15	23.6	23.6	23.6	79	18.1	0	1	225	0.00	29.787 
01:20	23.6	23.6	23.6	79	18.1	0	1	225	0.00	29.787 
01:25	23.5	23.5	23.5	80	18.3	0	0	---	0.00	29.787 
01:30	23.5	23.5	23.5	80	18.3	0	1	225	0.00	29.787 
01:35	23.3	23.3	23.3	80	18.1	0	1	225	0.00	29.787 
01:40	23.3	23.3	23.3	80	18.1	0	0	---	0.00	29.787 
01:45	23.2	23.2	23.2	80	18.0	0	0	---	0.00	29.789 
01:50	23.0	23.0	23.0	80	17.8	0	0	---	0.00	29.789 
01:55	23.0	23.0	23.0	81	18.1	0	0	---	0.00	29.789 
02:00	22.9	22.9	22.9	81	18.0	0	0	---	0.00	29.793 
02:05	22.9	22.9	22.9	81	18.0	0	0	---	0.00	29.793 
02:10	22.9	22.9	22.9	81	18.0	0	0	---	0.00	29.793 
02:15	22.7	22.7	22.7	81	17.8	0	0	---	0.00	29.798 
02:20	22.7	22.7	22.7	81	17.8	0	0	---	0.00	29.798 
02:25	22.5	22.5	22.5	81	17.6	0	0	---	0.00	29.798 
02:30	22.4	22.4	22.4	81	17.5	0	0	---	0.00	29.803 
02:35	22.4	22.4	22.4	82	17.8	0	0	---	0.00	29.803 
02:40	22.2	22.2	22.2	82	17.6	0	0	---	0.00	29.803 
02:45	22.2	22.2	22.2	82	17.6	0	0	---	0.00	29.805 
02:50	22.1	22.1	22.1	82	17.5	0	0	---	0.00	29.805 
02:55	22.1	22.1	22.1	82	17.5	0	0	---	0.00	29.805 
03:00	21.9	21.9	21.9	82	17.3	0	0	---	0.00	29.810 
03:05	21.9	21.9	21.9	83	17.5	0	0	---	0.00	29.810 
03:10	21.9	21.9	21.9	83	17.5	0	0	---	0.00	29.810 
03:15	21.9	21.9	21.9	83	17.5	0	0	---	0.00	29.819 
03:20	21.9	21.9	21.9	83	17.5	0	0	---	0.00	29.819 
03:25	21.9	21.9	21.9	83	17.5	0	0	---	0.00	29.819 
03:30	21.9	21.9	21.9	83	17.5	0	0	---	0.00	29.821 
03:35	21.9	21.9	21.9	84	17.8	0	0	---	0.00	29.821 
03:40	22.1	22.1	22.1	83	17.7	0	0	---	0.00	29.821 
03:45	22.1	22.1	22.1	83	17.7	0	0	---	0.00	29.820 
03:50	22.2	22.2	22.2	83	17.8	0	1	225	0.00	29.820 
03:55	22.2	22.2	22.2	84	18.1	0	0	---	0.00	29.820 
04:00	22.2	22.2	22.2	84	18.1	0	0	---	0.00	29.822 
04:05	22.2	22.2	22.2	84	18.1	0	0	---	0.00	29.822 
04:10	22.2	22.2	22.2	84	18.1	0	0	---	0.00	29.822 
04:15	22.2	22.2	22.2	84	18.1	0	0	---	0.00	29.822 
04:20	22.1	22.1	22.1	84	18.0	0	0	---	0.00	29.822 
04:25	22.1	22.1	22.1	84	18.0	0	0	---	0.00	29.822 
04:30	22.2	22.2	22.2	84	18.1	0	1	225	0.00	29.821 
04:35	22.2	22.2	22.2	85	18.4	0	1	225	0.00	29.821 
04:40	22.1	22.1	22.1	85	18.3	0	0	---	0.00	29.821 
04:45	22.1	22.1	22.1	85	18.3	0	0	---	0.00	29.822 
04:50	22.1	22.1	22.1	85	18.3	0	0	---	0.00	29.822 
04:55	22.1	22.1	22.1	85	18.3	0	0	---	0.00	29.822 
05:00	22.1	22.1	22.1	86	18.6	0	0	---	0.00	29.825 
05:05	22.1	22.1	22.1	86	18.6	0	0	---	0.00	29.825 
05:10	22.1	22.1	22.1	86	18.6	0	0	---	0.00	29.825 
05:15	22.1	22.1	22.1	86	18.6	0	0	---	0.00	29.827 
05:20	22.1	22.1	22.1	86	18.6	0	0	---	0.00	29.827 
05:25	21.9	21.9	21.9	86	18.4	0	0	---	0.00	29.827 
05:30	21.9	21.9	21.9	86	18.4	0	1	225	0.00	29.834 
05:35	21.9	21.9	21.9	87	18.6	0	0	---	0.00	29.834 
05:40	21.9	21.9	21.9	87	18.6	0	0	---	0.00	29.834 
05:45	21.8	21.8	21.8	87	18.5	0	0	---	0.00	29.839 
05:50	21.8	21.8	21.8	87	18.5	0	0	---	0.00	29.839 
05:55	21.8	21.8	21.8	87	18.5	0	0	---	0.00	29.839 
06:00	21.6	21.6	21.6	87	18.3	0	0	---	0.00	29.846 
06:05	21.6	21.6	21.6	87	18.3	0	0	---	0.00	29.846 
06:10	21.6	21.6	21.6	88	18.6	0	1	225	0.00	29.846 
06:15	21.6	21.6	21.6	88	18.6	0	1	225	0.00	29.857 
06:20	21.6	21.6	21.6	88	18.6	0	1	225	0.00	29.857 
06:25	21.6	21.6	21.6	88	18.6	0	1	225	0.00	29.857 
06:30	21.6	21.6	21.6	88	18.6	0	1	225	0.00	29.866 
06:35	21.6	21.6	21.6	88	18.6	0	1	225	0.00	29.866 
06:40	21.6	21.6	21.6	88	18.6	0	0	---	0.00	29.866 
06:45	21.6	21.6	21.6	87	18.3	0	1	225	0.00	29.870 
06:50	21.8	21.8	21.8	87	18.5	0	2	225	0.00	29.870 
06:55	21.8	21.8	21.8	86	18.3	0	1	338	0.00	29.870 
07:00	21.8	21.8	21.8	86	18.3	0	2	338	0.00	29.871 
07:05	21.8	21.8	21.8	86	18.3	0	2	338	0.00	29.871 
07:10	21.6	21.6	21.6	86	18.1	0	1	338	0.00	29.871 
07:15	21.6	21.6	21.6	86	18.1	0	1	338	0.00	29.879 
07:20	21.4	21.4	21.4	86	17.9	0	1	338	0.00	29.879 
07:25	21.4	21.4	21.4	85	17.6	0	1	338	0.00	29.879 
07:30	21.3	21.3	21.3	85	17.5	0	3	338	0.00	29.887 
07:35	21.3	21.3	21.3	85	17.5	0	1	90	0.00	29.887 
07:40	21.1	21.1	21.1	85	17.3	0	1	90	0.00	29.887 
07:45	21.1	21.1	21.1	85	17.3	0	1	90	0.00	29.893 
07:50	21.0	21.0	21.0	85	17.2	0	1	90	0.00	29.893 
07:55	20.8	20.8	20.8	85	17.0	0	0	---	0.00	29.893 
08:00	20.6	20.6	20.6	84	16.5	0	1	90	0.00	29.903 
08:05	20.6	20.6	20.6	84	16.5	0	1	90	0.00	29.903 
08:10	20.8	20.8	20.8	84	16.7	1	2	90	0.00	29.903 
08:15	20.8	20.8	20.8	82	16.2	1	3	90	0.00	29.905 
08:20	20.8	20.8	20.8	82	16.2	1	3	90	0.00	29.905 
08:25	20.8	20.8	20.8	80	15.6	0	2	90	0.00	29.905 
08:30	20.8	20.8	20.8	77	14.7	0	1	90	0.00	29.915 
08:35	20.8	20.8	20.8	77	14.7	0	1	90	0.00	29.915 
08:40	20.8	20.8	20.8	76	14.5	0	2	90	0.00	29.915 
08:45	20.8	20.8	20.8	74	13.8	0	1	90	0.00	29.921 
08:50	21.0	21.0	21.0	73	13.7	0	2	90	0.00	29.921 
08:55	21.0	21.0	21.0	73	13.7	0	1	90	0.00	29.921 
09:00	21.1	21.1	21.1	73	13.8	0	2	90	0.00	29.932 
09:05	21.1	21.1	21.1	71	13.2	1	2	90	0.00	29.932 
09:10	21.3	21.3	21.3	70	13.1	0	2	90	0.00	29.932 
09:15	21.3	21.3	21.3	69	12.7	1	3	90	0.00	29.936 
09:20	21.4	21.4	21.4	68	12.5	1	3	135	0.00	29.936 
09:25	21.4	21.4	21.4	67	12.2	0	2	90	0.00	29.936 
09:30	21.6	21.6	21.6	66	12.0	0	1	90	0.00	29.943 
09:35	21.8	21.8	21.8	65	11.9	0	2	90	0.00	29.943 
09:40	21.8	21.8	21.8	64	11.5	1	2	68	0.00	29.943 
09:45	21.9	21.9	21.9	64	11.6	1	2	68	0.00	29.946 
09:50	22.1	22.1	22.1	63	11.5	0	2	68	0.00	29.946 
09:55	22.2	22.2	22.2	63	11.6	1	4	68	0.00	29.946 
10:00	21.9	21.9	21.9	61	10.5	2	4	112	0.00	29.952 
10:05	21.9	21.9	21.9	62	10.9	2	4	68	0.00	29.952 
10:10	22.1	22.1	22.1	62	11.1	1	4	90	0.00	29.952 
10:15	22.1	22.1	22.1	61	10.7	2	4	90	0.00	29.956 
10:20	21.9	21.9	21.9	62	10.9	1	3	90	0.00	29.956 
10:25	21.9	21.9	21.9	62	10.9	1	3	90	0.00	29.956 
10:30	21.8	21.8	21.8	62	10.8	1	4	90	0.00	29.965 
10:35	21.8	21.8	21.8	62	10.8	1	3	90	0.00	29.965 
10:40	21.9	21.9	21.9	62	10.9	0	2	90	0.00	29.965 
10:45	21.9	21.9	21.9	62	10.9	1	2	90	0.00	29.970 
10:50	21.9	21.9	21.9	61	10.5	2	4	90	0.00	29.970 
10:55	21.8	21.8	21.8	62	10.8	2	4	112	0.00	29.970 
11:00	21.8	21.8	21.8	63	11.2	1	3	90	0.00	29.977 
11:05	21.9	21.9	21.9	62	10.9	1	2	90	0.00	29.977 
11:10	22.1	22.1	22.1	60	10.4	2	4	90	0.00	29.977 
11:15	22.2	22.2	22.2	62	11.2	1	3	90	0.00	29.982 
11:20	22.4	22.4	22.4	61	11.0	0	2	90	0.00	29.982 
11:25	22.5	22.5	22.5	61	11.1	1	4	112	0.00	29.982 
11:30	22.5	22.5	22.5	60	10.7	0	2	112	0.00	29.985 
11:35	22.4	22.4	22.4	60	10.6	1	4	112	0.00	29.985 
11:40	22.4	22.4	22.4	61	11.0	1	3	112	0.00	29.985 
11:45	22.4	22.4	22.4	62	11.4	2	4	112	0.00	29.985 
11:50	22.2	22.2	22.2	63	11.6	2	5	90	0.00	29.985 
11:55	22.2	22.2	22.2	62	11.2	2	5	90	0.00	29.985 
12:00	21.9	21.9	21.9	62	10.9	2	5	112	0.00	29.985 
12:05	21.9	21.9	21.9	61	10.5	2	5	90	0.00	29.985 
12:10	21.9	21.9	21.9	61	10.5	3	5	90	0.00	29.985 
12:15	21.8	21.8	21.8	61	10.4	3	5	90	0.00	29.986 
12:20	21.8	21.8	21.8	60	10.1	2	5	90	0.00	29.986 
12:25	21.9	21.9	21.9	62	10.9	2	5	90	0.00	29.986 
12:30	21.8	21.8	21.8	61	10.4	2	6	90	0.00	29.984 
12:35	21.6	21.6	21.6	61	10.3	2	5	90	0.00	29.984 
12:40	21.6	21.6	21.6	61	10.3	3	5	112	0.00	29.984 
12:45	21.8	21.8	21.8	61	10.4	2	4	90	0.00	29.984 
12:50	22.1	22.1	22.1	61	10.7	1	4	90	0.00	29.984 
12:55	22.1	22.1	22.1	60	10.4	1	3	90	0.00	29.984 
13:00	22.1	22.1	22.1	61	10.7	2	5	90	0.00	29.985 
13:05	22.1	22.1	22.1	61	10.7	2	4	90	0.00	29.985 
13:10	22.2	22.2	22.2	60	10.5	1	4	90	0.00	29.985 
13:15	22.2	22.2	22.2	60	10.5	1	3	90	0.00	29.986 
13:20	22.2	22.2	22.2	59	10.1	1	4	112	0.00	29.986 
13:25	22.4	22.4	22.4	59	10.3	1	3	112	0.00	29.986 
13:30	22.5	22.5	22.5	61	11.1	1	3	112	0.00	29.987 
13:35	22.7	22.7	22.7	59	10.6	1	4	90	0.00	29.987 
13:40	22.7	22.7	22.7	59	10.6	1	4	90	0.00	29.987 
13:45	22.5	22.5	22.5	60	10.7	2	4	90	0.00	29.989 
13:50	22.5	22.5	22.5	59	10.4	1	3	90	0.00	29.989 
13:55	22.5	22.5	22.5	60	10.7	1	3	90	0.00	29.989 
14:00	22.7	22.7	22.7	60	10.9	1	4	90	0.00	29.992 
14:05	22.7	22.7	22.7	60	10.9	2	3	90	0.00	29.992 
14:10	22.7	22.7	22.7	59	10.6	1	3	90	0.00	29.992 
14:15	22.7	22.7	22.7	58	10.2	1	4	90	0.00	29.993 
14:20	22.7	22.7	22.7	58	10.2	1	3	90	0.00	29.993 
14:25	22.9	22.9	22.9	59	10.7	0	2	90	0.00	29.993 
14:30	22.9	22.9	22.9	58	10.4	1	3	90	0.00	30.000 
14:35	23.0	23.0	23.0	58	10.5	0	2	90	0.00	30.000 
14:40	23.3	23.3	23.3	58	10.7	0	1	90	0.00	30.000 
14:45	23.3	23.3	23.3	58	10.7	1	3	90	0.00	30.000 
14:50	23.3	23.3	23.3	58	10.7	1	2	90	0.00	30.000 
14:55	23.3	23.3	23.3	58	10.7	0	2	90	0.00	30.000 
15:00	23.3	23.3	23.3	58	10.7	1	2	90	0.00	30.001 
15:05	23.3	23.3	23.3	59	11.1	0	2	90	0.00	30.001 
15:10	23.2	23.2	23.2	60	11.4	1	2	112	0.00	30.001 
15:15	23.0	23.0	23.0	60	11.2	1	2	112	0.00	30.002 
15:20	22.9	22.9	22.9	60	11.1	1	2	112	0.00	30.002 
15:25	23.0	23.0	23.0	60	11.2	1	2	112	0.00	30.002 
15:30	23.2	23.2	23.2	59	11.0	0	1	112	0.00	30.007 
15:35	23.3	23.3	23.3	58	10.7	1	2	112	0.00	30.007 
15:40	23.3	23.3	23.3	58	10.7	1	2	112	0.00	30.007 
15:45	23.5	23.5	23.5	59	11.3	0	2	112	0.00	30.014 
15:50	23.5	23.5	23.5	59	11.3	0	2	112	0.00	30.014 
15:55	23.5	23.5	23.5	58	10.9	0	2	112	0.00	30.014 
16:00	23.3	23.3	23.3	58	10.7	1	2	112	0.00	30.017 
16:05	23.5	23.5	23.5	57	10.5	0	2	112	0.00	30.017 
16:10	23.9	23.9	23.9	57	10.9	0	2	248	0.00	30.017 
16:15	24.1	24.1	24.1	56	10.7	0	1	292	0.00	30.016 
16:20	24.1	24.1	24.1	55	10.3	0	1	292	0.00	30.016 
16:25	24.2	24.2	24.2	55	10.4	0	1	292	0.00	30.016 
16:30	24.2	24.2	24.2	55	10.4	0	1	292	0.00	30.026 
16:35	24.2	24.2	24.2	55	10.4	0	2	292	0.00	30.026 
16:40	23.9	23.9	23.9	57	10.9	0	1	292	0.00	30.026 
16:45	23.3	23.3	23.3	58	10.7	0	1	292	0.00	30.028 
16:50	22.9	22.9	22.9	59	10.7	0	2	292	0.00	30.028 
16:55	22.2	22.2	22.2	60	10.5	0	1	292	0.00	30.028 
17:00	21.8	21.8	21.8	61	10.4	0	0	---	0.00	30.038 
17:05	21.4	21.4	21.4	63	10.8	0	1	292	0.00	30.038 
17:10	21.0	21.0	21.0	63	10.4	0	1	292	0.00	30.038 
17:15	20.5	20.5	20.5	64	10.3	0	0	---	0.00	30.048 
17:20	20.2	20.2	20.2	66	10.7	0	1	292	0.00	30.048 
17:25	19.7	19.7	19.7	67	10.5	0	0	---	0.00	30.048 
17:30	19.4	19.4	19.4	68	10.6	0	0	---	0.00	30.053 
17:35	18.9	18.9	18.9	69	10.4	0	0	---	0.00	30.053 
17:40	18.4	18.4	18.4	69	10.0	0	0	---	0.00	30.053 
17:45	18.0	18.0	18.0	70	9.9	0	0	---	0.00	30.061 
17:50	17.7	17.7	17.7	71	9.9	0	0	---	0.00	30.061 
17:55	17.2	17.2	17.2	73	10.1	0	0	---	0.00	30.061 
18:00	16.9	16.9	16.9	74	10.1	0	0	---	0.00	30.067 
18:05	16.4	16.4	16.4	74	9.6	0	0	---	0.00	30.067 
18:10	16.1	16.1	16.1	75	9.6	0	0	---	0.00	30.067 
18:15	15.7	15.7	15.7	76	9.5	0	0	---	0.00	30.070 
18:20	15.6	15.6	15.6	77	9.7	0	0	---	0.00	30.070 
18:25	15.4	15.4	15.4	77	9.5	0	0	---	0.00	30.070 
18:30	15.4	15.4	15.4	78	9.8	0	0	---	0.00	30.081 
18:35	15.4	15.4	15.4	80	10.4	0	0	---	0.00	30.081 
18:40	15.6	15.6	15.6	80	10.6	0	0	---	0.00	30.081 
18:45	15.6	15.6	15.6	80	10.6	0	0	---	0.00	30.084 
18:50	15.6	15.6	15.6	80	10.6	0	0	---	0.00	30.084 
18:55	15.9	15.9	15.9	78	10.3	0	0	---	0.00	30.084 
19:00	15.9	15.9	15.9	78	10.3	0	0	---	0.00	30.086 
19:05	15.9	15.9	15.9	78	10.3	0	0	---	0.00	30.086 
19:10	15.9	15.9	15.9	78	10.3	0	0	---	0.00	30.086 
19:15	15.7	15.7	15.7	78	10.1	0	0	---	0.00	30.092 
19:20	15.7	15.7	15.7	79	10.4	0	0	---	0.00	30.092 
19:25	16.1	16.1	16.1	78	10.5	0	0	---	0.00	30.092 
19:30	16.2	16.2	16.2	77	10.3	0	0	---	0.00	30.099 
19:35	16.4	16.4	16.4	78	10.8	0	0	---	0.00	30.099 
19:40	16.4	16.4	16.4	78	10.8	0	0	---	0.00	30.099 
19:45	16.4	16.4	16.4	77	10.5	0	1	292	0.00	30.103 
19:50	16.9	16.9	16.9	76	10.7	0	1	292	0.00	30.103 
19:55	17.0	17.0	17.0	75	10.5	0	0	---	0.00	30.103 
20:00	17.2	17.2	17.2	75	10.7	0	0	---	0.00	30.101 
20:05	17.3	17.3	17.3	76	11.1	0	0	---	0.00	30.101 
20:10	17.7	17.7	17.7	73	10.5	0	1	292	0.00	30.101 
20:15	18.0	18.0	18.0	73	10.8	0	0	---	0.00	30.099 
20:20	18.1	18.1	18.1	72	10.6	0	1	292	0.00	30.099 
20:25	18.1	18.1	18.1	72	10.6	0	1	292	0.00	30.099 
20:30	18.3	18.3	18.3	72	10.8	0	1	292	0.00	30.101 
20:35	18.3	18.3	18.3	72	10.8	0	1	292	0.00	30.101 
20:40	18.4	18.4	18.4	71	10.6	1	2	292	0.00	30.101 
20:45	18.4	18.4	18.4	71	10.6	0	1	292	0.00	30.097 
20:50	18.4	18.4	18.4	71	10.6	0	1	292	0.00	30.097 
20:55	18.4	18.4	18.4	72	10.9	0	0	---	0.00	30.097 
21:00	18.4	18.4	18.4	73	11.2	0	0	---	0.00	30.099 
21:05	18.4	18.4	18.4	72	10.9	0	1	292	0.00	30.099 
21:10	18.4	18.4	18.4	73	11.2	0	1	292	0.00	30.099 
21:15	18.6	18.6	18.6	73	11.4	0	0	---	0.00	30.098 
21:20	18.6	18.6	18.6	73	11.4	0	1	292	0.00	30.098 
21:25	18.6	18.6	18.6	73	11.4	0	1	292	0.00	30.098 
21:30	18.6	18.6	18.6	73	11.4	0	1	292	0.00	30.101 
21:35	18.8	18.8	18.8	73	11.6	0	1	292	0.00	30.101 
21:40	18.8	18.8	18.8	72	11.3	0	1	292	0.00	30.101 
21:45	18.8	18.8	18.8	73	11.6	0	1	292	0.00	30.105 
21:50	18.8	18.8	18.8	73	11.6	0	1	292	0.00	30.105 
21:55	18.8	18.8	18.8	73	11.6	0	1	292	0.00	30.105 
22:00	18.9	18.9	18.9	73	11.7	0	0	---	0.00	30.105 
22:05	18.9	18.9	18.9	74	12.0	0	1	292	0.00	30.105 
22:10	18.9	18.9	18.9	74	12.0	0	0	---	0.00	30.105 
22:15	19.1	19.1	19.1	75	12.5	0	0	---	0.00	30.107 
22:20	19.1	19.1	19.1	75	12.5	0	0	---	0.00	30.107 
22:25	19.1	19.1	19.1	76	12.8	0	0	---	0.00	30.107 
22:30	19.2	19.2	19.2	76	12.9	0	1	292	0.00	30.114 
22:35	19.4	19.4	19.4	76	13.1	0	1	292	0.00	30.114 
22:40	19.5	19.5	19.5	75	12.9	0	1	292	0.00	30.114 
22:45	19.5	19.5	19.5	75	12.9	0	1	292	0.00	30.112 
22:50	19.5	19.5	19.5	75	12.9	0	1	292	0.00	30.112 
22:55	19.5	19.5	19.5	75	12.9	0	1	292	0.00	30.112 
23:00	19.5	19.5	19.5	75	12.9	0	0	---	0.00	30.111 
23:05	19.5	19.5	19.5	75	12.9	0	1	292	0.00	30.111 
23:10	19.5	19.5	19.5	76	13.2	0	1	292	0.00	30.111 
23:15	19.5	19.5	19.5	76	13.2	0	1	292	0.00	30.112 
23:20	19.4	19.4	19.4	77	13.4	0	0	---	0.00	30.112 
23:25	19.4	19.4	19.4	77	13.4	0	0	---	0.00	30.112 
23:30	19.4	19.4	19.4	77	13.4	0	0	---	0.00	30.115 
23:35	19.4	19.4	19.4	77	13.4	0	0	---	0.00	30.115 
23:40	19.4	19.4	19.4	77	13.4	0	0	---	0.00	30.115 
23:45	19.4	19.4	19.4	77	13.4	0	1	292	0.00	30.115 
23:50	19.4	19.4	19.4	77	13.4	0	1	292	0.00	30.115 
23:55	19.4	19.4	19.4	78	13.7	0	1	292	0.00	30.115 

CoCoRaHS
IN-AL-39
A2 Web Hosting
Creative Commons License
GoDaddy
Look for:

loaded 2017-10-16 20:30:33 • last modified 2010-11-18 10:43:29
Privacy PolicyDisclaimer
• wx.awcolley.com is powered by PmWiki v.2002016 •
• all content (unless otherwise noted) © 2017 A W Colley